Time;durP1;ratioP1;P1;durP2;ratioP2;P2;SDS_P1;SDS_P2;PMS_P1;PMS_P2;Temp;Humidity;BMP_temperature;BMP_pressure;BME280_temperature;BME280_humidity;BME280_pressure;Samples;Min_cycle;Max_cycle;Signal;HPM_P1;HPM_P2
2021/12/03 00:00:28;;;;;;;5.30;2.92;;;;;;;-2.17;100.00;100596.88;15290232;19;20033;-61
2021/12/03 00:05:29;;;;;;;7.45;2.97;;;;;;;-2.16;100.00;100596.09;15287527;19;20038;-61
2021/12/03 00:10:32;;;;;;;9.35;3.22;;;;;;;-2.15;100.00;100597.84;15287723;19;20081;-60
2021/12/03 00:15:34;;;;;;;9.73;3.45;;;;;;;-2.12;100.00;100592.91;15289985;19;20077;-61
2021/12/03 00:20:36;;;;;;;9.40;3.72;;;;;;;-2.11;100.00;100594.69;15287837;19;20106;-61
2021/12/03 00:25:38;;;;;;;9.45;4.20;;;;;;;-2.04;100.00;100581.47;15286753;19;20101;-60
2021/12/03 00:30:40;;;;;;;10.50;3.70;;;;;;;-2.09;100.00;100587.97;15288148;19;20482;-61
2021/12/03 00:35:42;;;;;;;12.20;5.05;;;;;;;-2.14;100.00;100579.09;15288696;19;20407;-60
2021/12/03 00:40:44;;;;;;;10.95;4.40;;;;;;;-2.06;100.00;100592.41;15287230;19;20646;-60
2021/12/03 00:45:46;;;;;;;7.18;3.60;;;;;;;-2.06;100.00;100601.00;15282585;19;20028;-60
2021/12/03 00:50:48;;;;;;;6.15;3.28;;;;;;;-2.05;100.00;100605.34;15287026;19;20023;-60
2021/12/03 00:55:50;;;;;;;9.05;4.07;;;;;;;-2.02;100.00;100605.53;15287187;19;20070;-61
2021/12/03 01:00:52;;;;;;;9.10;4.47;;;;;;;-1.93;100.00;100614.66;15287563;19;20046;-61
2021/12/03 01:05:55;;;;;;;7.55;3.75;;;;;;;-1.93;100.00;100610.38;15286187;19;20018;-61
2021/12/03 01:10:57;;;;;;;7.70;3.92;;;;;;;-1.99;100.00;100616.00;15286390;19;20715;-60
2021/12/03 01:15:59;;;;;;;5.78;3.38;;;;;;;-1.91;100.00;100620.75;15287426;19;20085;-59
2021/12/03 01:21:02;;;;;;;9.63;4.07;;;;;;;-1.93;100.00;100624.91;15285571;19;20025;-61
2021/12/03 01:26:04;;;;;;;9.85;3.50;;;;;;;-1.87;100.00;100621.03;15281343;19;20027;-61
2021/12/03 01:31:06;;;;;;;7.72;3.78;;;;;;;-1.85;100.00;100623.72;15289330;19;20429;-59
2021/12/03 01:36:07;;;;;;;7.25;3.45;;;;;;;-1.87;100.00;100635.56;15299615;19;20042;-60
2021/12/03 01:41:11;;;;;;;10.65;3.90;;;;;;;-1.89;100.00;100637.13;15298295;19;20074;-61
2021/12/03 01:46:18;;;;;;;7.75;4.00;;;;;;;-1.91;100.00;100633.59;15296550;19;20011;-60
2021/12/03 01:51:21;;;;;;;11.45;3.50;;;;;;;-1.83;100.00;100638.44;15297208;19;20019;-60
2021/12/03 01:56:23;;;;;;;7.22;3.70;;;;;;;-1.90;100.00;100635.38;15297934;19;20017;-60
2021/12/03 02:01:27;;;;;;;7.40;4.00;;;;;;;-1.88;100.00;100637.22;15297807;19;20018;-61
2021/12/03 02:06:29;;;;;;;6.35;3.25;;;;;;;-1.90;100.00;100641.38;15296342;19;20033;-61
2021/12/03 02:11:32;;;;;;;6.85;3.28;;;;;;;-1.91;100.00;100648.97;15296374;19;20506;-61
2021/12/03 02:16:33;;;;;;;8.35;3.50;;;;;;;-1.88;100.00;100638.91;15297408;19;20014;-60
2021/12/03 02:21:35;;;;;;;8.07;4.28;;;;;;;-1.85;100.00;100634.84;15296292;19;20019;-60
2021/12/03 02:26:39;;;;;;;8.15;3.85;;;;;;;-1.89;100.00;100637.13;15292985;19;20101;-61
2021/12/03 02:31:40;;;;;;;7.47;3.97;;;;;;;-1.91;100.00;100639.59;15294441;19;20092;-61
2021/12/03 02:36:42;;;;;;;8.70;3.38;;;;;;;-1.87;100.00;100645.84;15295820;19;20038;-60
2021/12/03 02:41:44;;;;;;;9.35;3.65;;;;;;;-1.87;100.00;100638.13;15294018;19;20058;-61
2021/12/03 02:46:46;;;;;;;6.57;3.45;;;;;;;-1.84;100.00;100646.91;15293450;19;20029;-60
2021/12/03 02:51:48;;;;;;;6.88;3.88;;;;;;;-1.80;100.00;100635.19;15294904;19;20014;-60
2021/12/03 02:56:49;;;;;;;11.10;3.97;;;;;;;-1.80;100.00;100648.00;15294519;19;20022;-61
2021/12/03 03:01:51;;;;;;;9.82;3.90;;;;;;;-1.77;100.00;100627.66;15293567;19;20014;-61
2021/12/03 03:06:53;;;;;;;12.85;4.25;;;;;;;-1.74;100.00;100630.44;15289386;19;20460;-61
2021/12/03 03:11:55;;;;;;;7.22;3.80;;;;;;;-1.71;100.00;100642.56;15292146;19;20550;-61
2021/12/03 03:16:57;;;;;;;7.43;3.63;;;;;;;-1.65;100.00;100650.63;15293556;19;20277;-59
2021/12/03 03:21:58;;;;;;;8.15;3.92;;;;;;;-1.52;100.00;100650.63;15290731;19;20010;-61
2021/12/03 03:27:01;;;;;;;6.70;3.53;;;;;;;-1.60;100.00;100673.25;15288199;19;20427;-59
2021/12/03 03:32:03;;;;;;;9.43;4.07;;;;;;;-1.53;100.00;100665.94;15289841;19;20086;-61
2021/12/03 03:37:05;;;;;;;8.57;4.15;;;;;;;-1.55;100.00;100647.88;15290752;19;20081;-61
2021/12/03 03:42:07;;;;;;;12.63;4.30;;;;;;;-1.52;100.00;100630.09;15290948;19;20097;-61
2021/12/03 03:47:09;;;;;;;7.82;3.60;;;;;;;-1.51;100.00;100621.59;15289163;19;20046;-61
2021/12/03 03:52:11;;;;;;;9.35;4.20;;;;;;;-1.45;100.00;100610.84;15289207;19;20074;-60
2021/12/03 03:57:12;;;;;;;7.93;4.10;;;;;;;-1.46;100.00;100611.63;15289071;19;20078;-60
2021/12/03 04:02:14;;;;;;;8.90;3.92;;;;;;;-1.49;100.00;100611.44;15290025;19;20014;-60
2021/12/03 04:07:16;;;;;;;7.25;3.83;;;;;;;-1.51;100.00;100606.19;15288551;19;20006;-60
2021/12/03 04:12:18;;;;;;;9.30;4.53;;;;;;;-1.52;100.00;100599.28;15291410;19;20315;-61
2021/12/03 04:17:20;;;;;;;8.52;4.10;;;;;;;-1.55;100.00;100593.94;15289936;19;20014;-61
2021/12/03 04:22:24;;;;;;;11.20;5.22;;;;;;;-1.56;100.00;100593.84;15288897;19;20029;-61
2021/12/03 04:27:26;;;;;;;10.38;4.05;;;;;;;-1.52;100.00;100593.25;15284780;19;20073;-61
2021/12/03 04:32:27;;;;;;;8.82;4.40;;;;;;;-1.47;100.00;100604.69;15287090;19;20082;-60
2021/12/03 04:37:29;;;;;;;7.53;3.90;;;;;;;-1.58;100.00;100583.47;15288222;19;20010;-60
2021/12/03 04:42:31;;;;;;;7.65;3.83;;;;;;;-1.62;100.00;100576.41;15286844;19;20018;-61
2021/12/03 04:47:32;;;;;;;10.55;4.72;;;;;;;-1.72;100.00;100569.78;15285807;19;20085;-60
2021/12/03 04:52:34;;;;;;;10.07;4.95;;;;;;;-1.73;100.00;100579.97;15285217;19;20082;-60
2021/12/03 04:57:37;;;;;;;9.07;4.15;;;;;;;-1.80;100.00;100579.59;15285272;19;20086;-60
2021/12/03 05:02:39;;;;;;;10.55;4.93;;;;;;;-1.74;100.00;100581.66;15283585;19;20537;-61
2021/12/03 05:12:43;;;;;;;12.50;5.60;;;;;;;-1.80;100.00;100588.97;15302152;19;20365;-61
2021/12/03 05:18:06;;;;;;;10.88;5.38;;;;;;;-1.83;100.00;100586.19;15302027;19;20019;-61
2021/12/03 05:23:09;;;;;;;10.18;5.72;;;;;;;-1.78;100.00;100575.41;15300848;19;20015;-61
2021/12/03 05:28:11;;;;;;;10.73;6.18;;;;;;;-1.75;100.00;100579.00;15298096;19;20015;-61
2021/12/03 05:33:13;;;;;;;11.32;6.60;;;;;;;-1.67;100.00;100577.78;15300169;19;20407;-59
2021/12/03 05:38:14;;;;;;;13.20;6.95;;;;;;;-1.66;100.00;100575.31;15299169;19;20011;-61
2021/12/03 05:43:17;;;;;;;12.05;6.93;;;;;;;-1.67;100.00;100583.78;15298012;19;20544;-61
2021/12/03 05:48:19;;;;;;;17.05;8.07;;;;;;;-1.60;100.00;100585.09;15298138;19;20022;-60
2021/12/03 05:53:21;;;;;;;14.25;7.15;;;;;;;-1.58;100.00;100572.34;15297700;19;20018;-61
2021/12/03 05:58:23;;;;;;;17.73;8.70;;;;;;;-1.58;100.00;100585.19;15296724;19;20432;-60
2021/12/03 06:03:25;;;;;;;13.88;8.18;;;;;;;-1.58;100.00;100577.47;15291902;19;20034;-61
2021/12/03 06:08:27;;;;;;;17.98;9.18;;;;;;;-1.52;100.00;100570.16;15296200;19;20020;-61
2021/12/03 06:13:28;;;;;;;15.52;7.95;;;;;;;-1.57;100.00;100566.41;15296630;19;20534;-61
2021/12/03 06:18:30;;;;;;;19.10;9.30;;;;;;;-1.53;100.00;100576.06;15297033;19;20010;-59
2021/12/03 06:23:32;;;;;;;18.15;9.25;;;;;;;-1.48;100.00;100564.41;15296003;19;20841;-61
2021/12/03 06:28:36;;;;;;;14.63;9.35;;;;;;;-1.52;100.00;100567.56;15293279;19;20082;-61
2021/12/03 06:33:38;;;;;;;21.33;10.93;;;;;;;-1.46;100.00;100576.53;15293763;19;20093;-61
2021/12/03 06:38:39;;;;;;;21.65;10.70;;;;;;;-1.47;100.00;100561.03;15293363;19;20421;-61
2021/12/03 06:43:41;;;;;;;20.50;11.63;;;;;;;-1.41;100.00;100571.72;15291493;19;20419;-61
2021/12/03 06:48:43;;;;;;;20.83;12.48;;;;;;;-1.45;100.00;100564.59;15294130;19;20924;-61
2021/12/03 06:54:03;;;;;;;23.05;12.50;;;;;;;-1.37;100.00;100568.50;15285457;19;20074;-61
2021/12/03 06:59:04;;;;;;;24.67;13.52;;;;;;;-1.47;100.00;100572.22;15284554;19;20010;-61
2021/12/03 07:04:06;;;;;;;28.67;15.18;;;;;;;-1.35;100.00;100581.44;15289482;19;20014;-61
2021/12/03 07:09:08;;;;;;;32.55;16.88;;;;;;;-1.38;100.00;100571.00;15292993;19;20025;-60
2021/12/03 07:14:10;;;;;;;37.25;17.02;;;;;;;-1.37;100.00;100578.78;15292815;19;20754;-61
2021/12/03 07:19:12;;;;;;;32.70;16.65;;;;;;;-1.39;100.00;100572.69;15291675;19;20038;-61
2021/12/03 07:24:13;;;;;;;33.03;17.67;;;;;;;-1.34;100.00;100571.28;15290590;19;20007;-61
2021/12/03 07:29:15;;;;;;;32.83;17.00;;;;;;;-1.22;100.00;100575.41;15288558;19;20010;-61
2021/12/03 07:34:17;;;;;;;30.98;16.77;;;;;;;-1.19;100.00;100562.72;15291547;19;20039;-60
2021/12/03 07:39:19;;;;;;;29.05;15.85;;;;;;;-1.20;100.00;100558.38;15290788;19;20021;-60
2021/12/03 07:44:20;;;;;;;33.97;17.25;;;;;;;-1.17;100.00;100559.47;15290746;19;20082;-61
2021/12/03 07:49:23;;;;;;;34.10;16.73;;;;;;;-1.08;100.00;100552.31;15291286;19;20105;-61
2021/12/03 07:54:25;;;;;;;42.00;20.02;;;;;;;-0.95;100.00;100565.88;15291306;19;20109;-60
2021/12/03 07:59:26;;;;;;;34.88;16.90;;;;;;;-0.89;100.00;100550.81;15288997;19;20010;-60
2021/12/03 08:04:28;;;;;;;32.60;16.40;;;;;;;-0.87;100.00;100566.34;15289564;19;20010;-59
2021/12/03 08:09:30;;;;;;;39.42;18.00;;;;;;;-0.78;100.00;100567.78;15283925;19;20576;-59
2021/12/03 08:14:32;;;;;;;39.67;18.48;;;;;;;-0.74;100.00;100585.16;15287952;19;20043;-59
2021/12/03 08:19:34;;;;;;;40.92;18.50;;;;;;;-0.64;100.00;100589.16;15288291;19;20025;-59
2021/12/03 08:24:36;;;;;;;40.50;19.30;;;;;;;-0.65;100.00;100595.09;15288724;19;20082;-60
2021/12/03 08:29:37;;;;;;;36.25;17.65;;;;;;;-0.60;100.00;100585.06;15288852;19;20023;-60
2021/12/03 08:34:39;;;;;;;38.13;17.88;;;;;;;-0.61;100.00;100561.06;15288568;19;20427;-59
2021/12/03 08:39:41;;;;;;;38.70;17.83;;;;;;;-0.55;100.00;100563.97;15293908;19;20085;-59
2021/12/03 08:44:42;;;;;;;36.08;17.38;;;;;;;-0.47;100.00;100548.97;15301770;19;20018;-59
2021/12/03 08:49:50;;;;;;;37.63;17.98;;;;;;;-0.47;100.00;100558.41;15302438;19;20054;-59
2021/12/03 08:54:57;;;;;;;38.25;18.02;;;;;;;-0.44;100.00;100548.28;15301324;19;20027;-60
2021/12/03 09:00:05;;;;;;;45.53;18.70;;;;;;;-0.36;100.00;100544.47;15301959;19;20014;-61
2021/12/03 09:05:07;;;;;;;40.75;17.45;;;;;;;-0.32;100.00;100546.41;15299769;19;20014;-61
2021/12/03 09:10:13;;;;;;;37.75;16.20;;;;;;;-0.30;100.00;100542.25;15300531;19;20038;-62
2021/12/03 09:15:18;;;;;;;38.25;16.95;;;;;;;-0.23;100.00;100552.06;15299822;19;20018;-62
2021/12/03 09:20:41;;;;;;;42.42;16.42;;;;;;;-0.21;100.00;100535.03;15298338;19;20018;-60
2021/12/03 09:25:50;;;;;;;34.78;15.82;;;;;;;-0.20;100.00;100523.06;15299390;19;20530;-61
2021/12/03 09:30:54;;;;;;;38.60;16.52;;;;;;;-0.20;100.00;100523.94;15300019;19;20196;-61
2021/12/03 09:36:00;;;;;;;43.72;16.50;;;;;;;-0.19;100.00;100504.25;15303182;19;20031;-60
2021/12/03 09:41:14;;;;;;;39.47;16.20;;;;;;;-0.06;100.00;100516.09;15300592;19;20426;-60
2021/12/03 09:46:27;;;;;;;37.63;16.05;;;;;;;-0.01;100.00;100491.50;15298872;19;20077;-60
2021/12/03 09:51:36;;;;;;;36.88;15.13;;;;;;;0.01;100.00;100501.88;15295599;19;20014;-60
2021/12/03 09:56:38;;;;;;;42.92;15.40;;;;;;;0.09;100.00;100498.94;15298908;19;20078;-60
2021/12/03 10:18:12;;;;;;;42.60;16.08;;;;;;;0.29;100.00;100468.22;15298418;19;20014;-60
2021/12/03 10:39:25;;;;;;;41.80;14.30;;;;;;;0.50;100.00;100443.56;15297292;19;20011;-60
2021/12/03 11:00:39;;;;;;;46.33;16.23;;;;;;;0.63;100.00;100408.13;15282716;19;20003;-60
2021/12/03 12:23:19;;;;;;;24.40;10.13;;;;;;;1.52;92.78;100296.38;15289186;19;20470;-59
2021/12/03 13:20:59;;;;;;;24.83;7.10;;;;;;;0.98;98.89;100170.13;15282621;19;20018;-60
2021/12/03 13:32:32;;;;;;;15.75;5.45;;;;;;;0.93;99.71;100166.47;15299055;19;20507;-60
2021/12/03 13:59:34;;;;;;;16.55;4.63;;;;;;;0.98;100.00;100133.16;15296326;19;20497;-59
2021/12/03 14:04:32;;;;;;;11.43;4.13;;;;;;;1.00;100.00;100121.22;15294624;19;20077;-60
2021/12/03 14:52:32;;;;;;;12.97;4.67;;;;;;;1.28;100.00;100063.13;15285006;19;20803;-62
2021/12/03 14:57:45;;;;;;;13.07;3.92;;;;;;;1.37;100.00;100050.63;15293822;19;20709;-60
2021/12/03 15:03:13;;;;;;;10.50;4.32;;;;;;;1.35;100.00;100047.06;15292608;19;20014;-61
2021/12/03 15:08:20;;;;;;;14.02;5.40;;;;;;;1.35;100.00;100049.66;15290462;19;20010;-61
2021/12/03 15:18:57;;;;;;;20.75;6.53;;;;;;;1.38;100.00;100042.03;15293055;19;20027;-61
2021/12/03 16:52:51;;;;;;;17.80;6.72;;;;;;;1.99;100.00;99994.59;15288841;19;20669;-59
2021/12/03 16:57:54;;;;;;;15.25;6.75;;;;;;;2.04;100.00;99985.34;15286856;19;20021;-59
2021/12/03 17:03:06;;;;;;;15.93;7.22;;;;;;;2.04;100.00;99979.28;15299991;19;20490;-59
2021/12/03 17:19:26;;;;;;;14.63;7.65;;;;;;;2.00;100.00;99969.66;15299945;19;20351;-59
2021/12/03 17:46:28;;;;;;;12.50;6.47;;;;;;;2.10;100.00;99961.44;15192134;19;2005947;-60
2021/12/03 17:51:13;;;;;;;14.98;7.20;;;;;;;2.15;100.00;99967.69;15297266;19;20094;-60
2021/12/03 17:56:19;;;;;;;13.63;7.22;;;;;;;2.15;100.00;99966.78;15300439;19;20011;-60
2021/12/03 18:01:31;;;;;;;12.75;7.03;;;;;;;2.15;100.00;99964.19;15298834;19;20544;-60
2021/12/03 18:07:04;;;;;;;14.05;7.10;;;;;;;2.23;100.00;99963.66;15299060;19;20086;-60
2021/12/03 18:44:02;;;;;;;15.35;8.73;;;;;;;2.33;100.00;99949.41;15296101;19;20033;-61
2021/12/03 18:59:28;;;;;;;17.77;9.13;;;;;;;2.42;100.00;99930.78;15294800;19;20078;-59
2021/12/03 19:04:37;;;;;;;15.63;8.63;;;;;;;2.43;100.00;99929.94;15294822;19;20081;-59
2021/12/03 19:09:43;;;;;;;20.75;11.40;;;;;;;2.43;100.00;99915.31;15291039;19;20090;-60
2021/12/03 19:14:58;;;;;;;18.10;10.32;;;;;;;2.46;100.00;99907.69;15294348;19;20074;-59
2021/12/03 19:20:00;;;;;;;19.05;9.93;;;;;;;2.44;100.00;99904.13;15293996;19;20506;-60
2021/12/03 19:25:02;;;;;;;17.92;9.60;;;;;;;2.47;100.00;99912.00;15293839;19;20671;-60
2021/12/03 19:30:05;;;;;;;16.70;10.05;;;;;;;2.53;100.00;99907.91;15277950;19;20490;-61
2021/12/03 19:35:08;;;;;;;20.60;9.15;;;;;;;2.53;100.00;99908.75;15165710;19;20033;-59
2021/12/03 19:40:11;;;;;;;17.42;9.98;;;;;;;2.54;100.00;99899.28;15158831;19;20015;-60
2021/12/03 19:45:18;;;;;;;15.98;8.93;;;;;;;2.60;100.00;99905.56;15163441;19;20093;-60
2021/12/03 19:55:37;;;;;;;19.45;10.38;;;;;;;2.54;100.00;99896.72;15161891;19;20340;-60
2021/12/03 20:00:40;;;;;;;17.27;9.82;;;;;;;2.53;100.00;99897.56;15166224;19;20030;-59
2021/12/03 20:05:42;;;;;;;17.00;9.23;;;;;;;2.55;100.00;99896.78;15165008;19;20532;-61
2021/12/03 20:10:47;;;;;;;18.73;10.55;;;;;;;2.55;100.00;99896.78;15166953;19;20006;-57
2021/12/03 20:16:00;;;;;;;20.13;11.20;;;;;;;2.56;100.00;99903.69;15147638;19;20018;-61
2021/12/03 20:21:06;;;;;;;18.70;10.02;;;;;;;2.54;100.00;99899.28;14814004;19;20247;-60
2021/12/03 20:31:13;;;;;;;20.48;10.07;;;;;;;2.58;100.00;99907.25;15154213;19;20437;-59
2021/12/03 20:36:27;;;;;;;19.85;10.40;;;;;;;2.61;100.00;99909.94;15103000;19;20490;-60
2021/12/03 20:52:07;;;;;;;20.67;10.77;;;;;;;2.69;100.00;99935.16;15157964;19;20484;-59
2021/12/03 20:57:22;;;;;;;18.10;9.60;;;;;;;2.63;100.00;99936.69;15169309;19;20098;-59
2021/12/03 21:13:19;;;;;;;17.50;9.93;;;;;;;2.72;100.00;99935.25;15102992;19;20014;-60
2021/12/03 21:23:33;;;;;;;19.55;10.65;;;;;;;2.74;100.00;99941.38;14524074;19;20545;-60
2021/12/03 21:39:24;;;;;;;;;;;;;;;2.73;100.00;99947.34;14695760;19;21081;-60
2021/12/03 21:44:25;;;;;;;19.98;10.40;;;;;;;2.73;100.00;99947.34;15297125;19;20010;-60
2021/12/03 21:49:28;;;;;;;18.48;9.57;;;;;;;2.75;100.00;99956.06;15291594;19;20031;-60
2021/12/03 21:54:30;;;;;;;18.25;9.23;;;;;;;2.74;100.00;99946.53;15298152;19;20024;-60
2021/12/03 21:59:33;;;;;;;19.95;10.40;;;;;;;2.74;100.00;99938.78;15298952;19;20496;-58
2021/12/03 22:04:34;;;;;;;16.52;9.68;;;;;;;2.81;100.00;99941.63;15298776;19;20032;-60
2021/12/03 22:09:36;;;;;;;20.50;10.00;;;;;;;2.76;100.00;99931.94;15292593;19;20475;-60
2021/12/03 22:14:40;;;;;;;21.20;10.05;;;;;;;2.73;100.00;99935.34;15297004;19;20015;-60
2021/12/03 22:19:42;;;;;;;14.98;8.40;;;;;;;2.76;100.00;99942.28;15297861;19;20031;-60
2021/12/03 22:24:44;;;;;;;17.90;8.75;;;;;;;2.78;100.00;99935.50;15295521;19;20066;-61
2021/12/03 22:29:46;;;;;;;17.25;9.63;;;;;;;2.81;100.00;99935.59;15293221;19;20756;-60
2021/12/03 22:34:47;;;;;;;18.05;9.65;;;;;;;2.74;100.00;99934.50;15298980;19;20479;-58
2021/12/03 22:39:49;;;;;;;18.02;9.57;;;;;;;2.78;100.00;99935.50;15294732;19;20015;-60
2021/12/03 22:44:52;;;;;;;16.77;9.23;;;;;;;-147.53;100.00;57128.34;15295487;19;20356;-61
2021/12/03 22:50:14;;;;;;;18.60;9.07;;;;;;;-147.53;100.00;57128.34;15291608;19;20088;-60
2021/12/03 22:55:15;;;;;;;19.30;9.00;;;;;;;-147.53;100.00;57128.34;15188750;19;2004446;-61
2021/12/03 23:00:49;;;;;;;14.30;8.52;;;;;;;-147.53;100.00;57128.34;15293255;19;20018;-59
2021/12/03 23:05:51;;;;;;;14.65;7.35;;;;;;;-147.53;100.00;57128.34;15294496;19;20037;-59
2021/12/03 23:10:55;;;;;;;16.60;8.40;;;;;;;-147.53;100.00;57128.34;15293474;19;20022;-58
2021/12/03 23:15:57;;;;;;;15.57;7.90;;;;;;;-147.53;100.00;57128.34;15293277;19;20031;-61
2021/12/03 23:20:58;;;;;;;13.27;7.50;;;;;;;-147.53;100.00;57128.34;15292055;19;20094;-61
2021/12/03 23:26:00;;;;;;;17.20;8.05;;;;;;;-147.53;100.00;57128.34;15291647;19;20685;-61
2021/12/03 23:31:05;;;;;;;13.40;7.30;;;;;;;-147.53;100.00;57128.34;15291169;19;20082;-60
2021/12/03 23:36:11;;;;;;;14.02;7.80;;;;;;;-147.53;100.00;57128.34;15293340;19;20018;-61
2021/12/03 23:41:13;;;;;;;14.15;7.78;;;;;;;-147.53;100.00;57128.34;15292763;19;20014;-60
2021/12/03 23:46:14;;;;;;;16.23;7.88;;;;;;;-147.53;100.00;57128.34;15293255;19;20405;-59
2021/12/03 23:51:16;;;;;;;16.80;7.43;;;;;;;-147.53;100.00;57128.34;15289503;19;20034;-60
2021/12/03 23:56:19;;;;;;;14.13;7.97;;;;;;;-147.53;100.00;57128.34;15292001;19;20038;-59
